73TE weather

Moore Private Airport
Azle, Texas, United States

Public forecast

Using degrees Fahrenheit for public forecast. Weather courtesy of forecast.io.

METAR (pilot weather report)

Closest report is NAS Fort Worth JRB/Carswell Field, 11.1 nm (20.5 km) SSE. Retrieved 2019/09/22 05:52 UTC (52 minutes ago):

KNFW 220552Z AUTO 17014KT 10SM CLR 28/20 A2998 RMK AO2 SLP136 T02830200 10339 20283 403670256 50003 VISNO N $

TAF (pilot weather forecast)

Forecast is more than 12 hours old.

Closest forecast is NAS Fort Worth JRB/Carswell Field, 11.1 nm (20.5 km) SSE. Retrieved 2014/12/04 15:30 UTC (5 years ago):

TAF KNFW 041500Z 0415/0515 16009KT 9999 8000 BR BKN015 OVC060 QNH3004INS TEMPO 0415/0420 3200 -DZ BR BKN009 OVC020 FM050000 16009KT 9999 BKN010 OVC040 QNH3010INS FM051200 17012KT 9999 BKN040 OVC100 QNH3012INS T24/0423Z T13/0512Z FN20046